sensor_id;sensor_type;location;lat;lon;timestamp;pressure;altitude;pressure_sealevel;temperature;humidity
63819;BME280;49970;54.976;73.248;2023-05-21T00:00:36;101119.19;;;12.96;64.68
63819;BME280;49970;54.976;73.248;2023-05-21T00:03:02;101123.34;;;13.00;64.90
63819;BME280;49970;54.976;73.248;2023-05-21T00:05:29;101125.13;;;13.00;64.77
63819;BME280;49970;54.976;73.248;2023-05-21T00:07:55;101128.34;;;13.05;64.38
63819;BME280;49970;54.976;73.248;2023-05-21T00:10:22;101125.56;;;13.06;64.53
63819;BME280;49970;54.976;73.248;2023-05-21T00:12:48;101128.03;;;13.09;64.57
63819;BME280;49970;54.976;73.248;2023-05-21T00:15:14;101134.72;;;13.15;64.34
63819;BME280;49970;54.976;73.248;2023-05-21T00:17:40;101129.00;;;13.21;64.17
63819;BME280;49970;54.976;73.248;2023-05-21T00:20:08;101126.97;;;13.25;64.17
63819;BME280;49970;54.976;73.248;2023-05-21T00:22:34;101116.13;;;13.28;63.88
63819;BME280;49970;54.976;73.248;2023-05-21T00:25:01;101131.25;;;13.40;63.16
63819;BME280;49970;54.976;73.248;2023-05-21T00:27:27;101134.22;;;13.48;62.88
63819;BME280;49970;54.976;73.248;2023-05-21T00:29:53;101126.88;;;13.52;62.62
63819;BME280;49970;54.976;73.248;2023-05-21T00:32:20;101127.53;;;13.55;62.98
63819;BME280;49970;54.976;73.248;2023-05-21T00:34:47;101116.97;;;13.54;63.73
63819;BME280;49970;54.976;73.248;2023-05-21T00:37:13;101128.78;;;13.62;64.00
63819;BME280;49970;54.976;73.248;2023-05-21T00:39:40;101128.69;;;13.64;64.42
63819;BME280;49970;54.976;73.248;2023-05-21T00:42:06;101134.41;;;13.70;64.17
63819;BME280;49970;54.976;73.248;2023-05-21T00:44:33;101133.97;;;13.77;63.38
63819;BME280;49970;54.976;73.248;2023-05-21T00:47:03;101137.78;;;13.85;62.97
63819;BME280;49970;54.976;73.248;2023-05-21T00:49:31;101133.94;;;13.89;63.44
63819;BME280;49970;54.976;73.248;2023-05-21T00:51:57;101138.94;;;13.94;63.18
63819;BME280;49970;54.976;73.248;2023-05-21T00:54:27;101138.41;;;14.02;64.86
63819;BME280;49970;54.976;73.248;2023-05-21T00:56:53;101137.72;;;14.11;63.22
63819;BME280;49970;54.976;73.248;2023-05-21T00:59:20;101142.66;;;14.28;62.83
63819;BME280;49970;54.976;73.248;2023-05-21T01:01:47;101142.94;;;14.49;61.83
63819;BME280;49970;54.976;73.248;2023-05-21T01:04:40;101144.56;;;14.63;61.40
63819;BME280;49970;54.976;73.248;2023-05-21T01:08:33;101154.34;;;14.86;61.86
63819;BME280;49970;54.976;73.248;2023-05-21T01:12:24;101149.47;;;15.15;59.28
63819;BME280;49970;54.976;73.248;2023-05-21T01:16:40;101154.72;;;15.51;58.41
63819;BME280;49970;54.976;73.248;2023-05-21T01:20:31;101156.34;;;15.76;56.49
63819;BME280;49970;54.976;73.248;2023-05-21T01:24:23;101159.84;;;16.10;55.18
63819;BME280;49970;54.976;73.248;2023-05-21T01:28:15;101138.28;;;16.34;53.51
63819;BME280;49970;54.976;73.248;2023-05-21T01:36:22;101146.25;;;16.88;51.33
63819;BME280;49970;54.976;73.248;2023-05-21T01:44:27;101145.91;;;18.06;49.06
63819;BME280;49970;54.976;73.248;2023-05-21T01:48:21;101148.50;;;18.56;48.31
63819;BME280;49970;54.976;73.248;2023-05-21T01:52:12;101145.84;;;18.85;47.97
63819;BME280;49970;54.976;73.248;2023-05-21T01:56:03;101156.72;;;19.12;46.35
63819;BME280;49970;54.976;73.248;2023-05-21T02:03:42;101161.50;;;19.75;45.61
63819;BME280;49970;54.976;73.248;2023-05-21T02:07:59;101157.78;;;20.13;44.24
63819;BME280;49970;54.976;73.248;2023-05-21T02:11:50;101161.88;;;20.35;44.04
63819;BME280;49970;54.976;73.248;2023-05-21T02:15:40;101158.91;;;20.38;44.09
63819;BME280;49970;54.976;73.248;2023-05-21T02:19:56;101165.13;;;20.49;43.94
63819;BME280;49970;54.976;73.248;2023-05-21T02:23:48;101173.66;;;20.62;43.55
63819;BME280;49970;54.976;73.248;2023-05-21T02:27:19;101174.03;;;20.67;42.28
63819;BME280;49970;54.976;73.248;2023-05-21T02:29:46;101169.56;;;20.58;42.33
63819;BME280;49970;54.976;73.248;2023-05-21T02:32:12;101172.72;;;20.53;42.36
63819;BME280;49970;54.976;73.248;2023-05-21T02:34:38;101173.19;;;20.39;42.65
63819;BME280;49970;54.976;73.248;2023-05-21T02:37:07;101172.91;;;20.14;42.92
63819;BME280;49970;54.976;73.248;2023-05-21T02:39:34;101176.97;;;20.01;42.99
63819;BME280;49970;54.976;73.248;2023-05-21T02:42:01;101181.84;;;19.87;43.35
63819;BME280;49970;54.976;73.248;2023-05-21T02:44:27;101176.06;;;19.82;43.00
63819;BME280;49970;54.976;73.248;2023-05-21T02:46:53;101175.13;;;19.64;43.16
63819;BME280;49970;54.976;73.248;2023-05-21T02:49:19;101169.59;;;19.56;43.08
63819;BME280;49970;54.976;73.248;2023-05-21T02:51:47;101174.72;;;19.49;43.35
63819;BME280;49970;54.976;73.248;2023-05-21T02:54:14;101179.81;;;19.62;43.93
63819;BME280;49970;54.976;73.248;2023-05-21T02:56:40;101174.78;;;19.77;43.66
63819;BME280;49970;54.976;73.248;2023-05-21T02:59:06;101178.59;;;19.84;44.14
63819;BME280;49970;54.976;73.248;2023-05-21T03:01:32;101172.94;;;19.87;43.80
63819;BME280;49970;54.976;73.248;2023-05-21T03:03:59;101168.50;;;19.96;44.44
63819;BME280;49970;54.976;73.248;2023-05-21T03:06:25;101170.09;;;20.16;43.59
63819;BME280;49970;54.976;73.248;2023-05-21T03:08:52;101172.50;;;20.19;42.05
63819;BME280;49970;54.976;73.248;2023-05-21T03:11:19;101168.41;;;20.15;42.16
63819;BME280;49970;54.976;73.248;2023-05-21T03:13:45;101161.56;;;20.21;41.87
63819;BME280;49970;54.976;73.248;2023-05-21T03:16:11;101165.97;;;20.49;42.01
63819;BME280;49970;54.976;73.248;2023-05-21T03:18:38;101173.28;;;20.57;42.39
63819;BME280;49970;54.976;73.248;2023-05-21T03:21:06;101166.03;;;20.57;42.07
63819;BME280;49970;54.976;73.248;2023-05-21T03:23:32;101158.56;;;20.69;42.52
63819;BME280;49970;54.976;73.248;2023-05-21T03:26:00;101168.50;;;20.86;42.53
63819;BME280;49970;54.976;73.248;2023-05-21T03:28:27;101167.03;;;20.92;41.51
63819;BME280;49970;54.976;73.248;2023-05-21T03:30:53;101161.94;;;20.89;41.16
63819;BME280;49970;54.976;73.248;2023-05-21T03:33:54;101163.03;;;20.78;40.69
63819;BME280;49970;54.976;73.248;2023-05-21T03:36:24;101176.09;;;20.73;40.17
63819;BME280;49970;54.976;73.248;2023-05-21T03:38:50;101155.72;;;20.71;41.20
63819;BME280;49970;54.976;73.248;2023-05-21T03:41:17;101170.34;;;20.86;41.53
63819;BME280;49970;54.976;73.248;2023-05-21T03:43:48;101169.53;;;20.94;41.04
63819;BME280;49970;54.976;73.248;2023-05-21T03:46:14;101166.91;;;21.02;40.49
63819;BME280;49970;54.976;73.248;2023-05-21T03:49:04;101164.84;;;21.13;40.76
63819;BME280;49970;54.976;73.248;2023-05-21T03:51:32;101162.44;;;21.28;40.07
63819;BME280;49970;54.976;73.248;2023-05-21T03:53:58;101166.59;;;21.41;40.40
63819;BME280;49970;54.976;73.248;2023-05-21T03:56:26;101149.09;;;21.45;40.07
63819;BME280;49970;54.976;73.248;2023-05-21T03:58:53;101157.91;;;21.55;39.96
63819;BME280;49970;54.976;73.248;2023-05-21T04:01:19;101149.97;;;21.53;39.54
63819;BME280;49970;54.976;73.248;2023-05-21T04:03:48;101153.88;;;21.59;39.82
63819;BME280;49970;54.976;73.248;2023-05-21T04:06:15;101160.94;;;21.60;39.28
63819;BME280;49970;54.976;73.248;2023-05-21T04:08:42;101158.47;;;21.67;39.02
63819;BME280;49970;54.976;73.248;2023-05-21T04:11:10;101156.84;;;21.82;39.16
63819;BME280;49970;54.976;73.248;2023-05-21T04:13:37;101148.75;;;21.82;38.42
63819;BME280;49970;54.976;73.248;2023-05-21T04:16:03;101151.63;;;21.80;38.41
63819;BME280;49970;54.976;73.248;2023-05-21T04:18:30;101156.47;;;21.77;37.70
63819;BME280;49970;54.976;73.248;2023-05-21T04:20:56;101156.56;;;21.93;37.60
63819;BME280;49970;54.976;73.248;2023-05-21T04:23:24;101155.09;;;21.99;37.77
63819;BME280;49970;54.976;73.248;2023-05-21T04:25:51;101151.38;;;22.00;38.09
63819;BME280;49970;54.976;73.248;2023-05-21T04:28:18;101156.59;;;22.01;37.27
63819;BME280;49970;54.976;73.248;2023-05-21T04:30:46;101150.88;;;22.04;37.40
63819;BME280;49970;54.976;73.248;2023-05-21T04:33:13;101157.00;;;22.15;36.94
63819;BME280;49970;54.976;73.248;2023-05-21T04:35:45;101151.63;;;22.23;37.20
63819;BME280;49970;54.976;73.248;2023-05-21T04:38:14;101144.03;;;22.18;36.74
63819;BME280;49970;54.976;73.248;2023-05-21T04:40:49;101141.69;;;22.23;37.00
63819;BME280;49970;54.976;73.248;2023-05-21T04:43:21;101134.28;;;22.25;37.34
63819;BME280;49970;54.976;73.248;2023-05-21T04:45:52;101143.44;;;22.41;37.25
63819;BME280;49970;54.976;73.248;2023-05-21T04:48:24;101136.34;;;22.56;36.61
63819;BME280;49970;54.976;73.248;2023-05-21T04:50:52;101135.84;;;22.60;35.99
63819;BME280;49970;54.976;73.248;2023-05-21T04:53:19;101141.59;;;22.57;36.07
63819;BME280;49970;54.976;73.248;2023-05-21T04:55:45;101130.63;;;22.75;36.11
63819;BME280;49970;54.976;73.248;2023-05-21T04:58:12;101133.50;;;22.98;36.21
63819;BME280;49970;54.976;73.248;2023-05-21T05:00:39;101132.00;;;23.04;35.69
63819;BME280;49970;54.976;73.248;2023-05-21T05:03:07;101141.81;;;22.97;35.22
63819;BME280;49970;54.976;73.248;2023-05-21T05:05:33;101133.66;;;22.88;35.97
63819;BME280;49970;54.976;73.248;2023-05-21T05:08:08;101122.88;;;22.97;35.39
63819;BME280;49970;54.976;73.248;2023-05-21T05:10:34;101119.16;;;22.98;35.52
63819;BME280;49970;54.976;73.248;2023-05-21T05:13:01;101121.53;;;22.93;35.48
63819;BME280;49970;54.976;73.248;2023-05-21T05:15:28;101117.78;;;22.85;35.50
63819;BME280;49970;54.976;73.248;2023-05-21T05:17:56;101134.34;;;22.91;36.02
63819;BME280;49970;54.976;73.248;2023-05-21T05:20:22;101123.56;;;22.91;35.74
63819;BME280;49970;54.976;73.248;2023-05-21T05:22:49;101131.16;;;22.87;35.42
63819;BME280;49970;54.976;73.248;2023-05-21T05:25:16;101130.78;;;22.66;35.54
63819;BME280;49970;54.976;73.248;2023-05-21T05:27:44;101135.31;;;22.49;35.67
63819;BME280;49970;54.976;73.248;2023-05-21T05:30:10;101130.91;;;22.40;35.21
63819;BME280;49970;54.976;73.248;2023-05-21T05:32:37;101123.00;;;22.38;36.41
63819;BME280;49970;54.976;73.248;2023-05-21T05:35:03;101115.06;;;22.53;35.87
63819;BME280;49970;54.976;73.248;2023-05-21T05:37:29;101123.38;;;22.68;35.67
63819;BME280;49970;54.976;73.248;2023-05-21T05:39:58;101114.44;;;22.75;35.60
63819;BME280;49970;54.976;73.248;2023-05-21T05:42:27;101113.06;;;22.87;36.03
63819;BME280;49970;54.976;73.248;2023-05-21T05:44:53;101104.13;;;22.87;35.16
63819;BME280;49970;54.976;73.248;2023-05-21T05:47:20;101082.69;;;22.77;35.20
63819;BME280;49970;54.976;73.248;2023-05-21T05:49:46;101100.78;;;22.93;35.19
63819;BME280;49970;54.976;73.248;2023-05-21T05:52:12;101089.97;;;22.93;35.02
63819;BME280;49970;54.976;73.248;2023-05-21T05:54:39;101090.47;;;22.97;35.76
63819;BME280;49970;54.976;73.248;2023-05-21T05:57:05;101099.22;;;23.15;35.51
63819;BME280;49970;54.976;73.248;2023-05-21T05:59:33;101095.00;;;23.13;34.69
63819;BME280;49970;54.976;73.248;2023-05-21T06:02:00;101088.59;;;23.05;35.48
63819;BME280;49970;54.976;73.248;2023-05-21T06:04:26;101086.22;;;23.10;35.40
63819;BME280;49970;54.976;73.248;2023-05-21T06:06:56;101078.94;;;23.19;35.40
63819;BME280;49970;54.976;73.248;2023-05-21T06:09:23;101073.88;;;23.16;35.63
63819;BME280;49970;54.976;73.248;2023-05-21T06:11:50;101078.94;;;23.19;35.17
63819;BME280;49970;54.976;73.248;2023-05-21T06:14:16;101069.31;;;23.17;36.13
63819;BME280;49970;54.976;73.248;2023-05-21T06:16:43;101081.28;;;23.22;35.29
63819;BME280;49970;54.976;73.248;2023-05-21T06:19:09;101093.16;;;23.13;35.11
63819;BME280;49970;54.976;73.248;2023-05-21T06:21:36;101078.78;;;23.13;34.82
63819;BME280;49970;54.976;73.248;2023-05-21T06:24:09;101073.53;;;23.19;35.68
63819;BME280;49970;54.976;73.248;2023-05-21T06:26:35;101075.16;;;23.36;36.17
63819;BME280;49970;54.976;73.248;2023-05-21T06:29:01;101072.50;;;23.28;35.72
63819;BME280;49970;54.976;73.248;2023-05-21T06:31:28;101071.16;;;23.24;36.80
63819;BME280;49970;54.976;73.248;2023-05-21T06:33:58;101075.38;;;23.19;36.50
63819;BME280;49970;54.976;73.248;2023-05-21T06:36:25;101070.00;;;23.02;35.92
63819;BME280;49970;54.976;73.248;2023-05-21T06:38:56;101075.25;;;22.87;35.69
63819;BME280;49970;54.976;73.248;2023-05-21T06:41:23;101076.78;;;22.90;35.92
63819;BME280;49970;54.976;73.248;2023-05-21T06:43:53;101070.53;;;22.98;36.24
63819;BME280;49970;54.976;73.248;2023-05-21T06:46:41;101067.44;;;23.25;35.39
63819;BME280;49970;54.976;73.248;2023-05-21T06:49:10;101061.00;;;23.34;35.88
63819;BME280;49970;54.976;73.248;2023-05-21T06:51:36;101063.63;;;23.51;35.42
63819;BME280;49970;54.976;73.248;2023-05-21T06:54:04;101061.44;;;23.54;34.83
63819;BME280;49970;54.976;73.248;2023-05-21T06:56:32;101059.06;;;23.51;34.63
63819;BME280;49970;54.976;73.248;2023-05-21T06:58:59;101059.38;;;23.56;34.45
63819;BME280;49970;54.976;73.248;2023-05-21T07:01:26;101061.59;;;23.53;34.95
63819;BME280;49970;54.976;73.248;2023-05-21T07:03:53;101060.41;;;23.55;35.17
63819;BME280;49970;54.976;73.248;2023-05-21T07:06:20;101059.53;;;23.63;35.85
63819;BME280;49970;54.976;73.248;2023-05-21T07:08:47;101058.69;;;23.71;35.14
63819;BME280;49970;54.976;73.248;2023-05-21T07:11:14;101057.84;;;23.62;35.17
63819;BME280;49970;54.976;73.248;2023-05-21T07:13:41;101057.69;;;23.55;34.67
63819;BME280;49970;54.976;73.248;2023-05-21T07:16:07;101056.19;;;23.53;35.30
63819;BME280;49970;54.976;73.248;2023-05-21T07:18:55;101054.50;;;23.52;35.02
63819;BME280;49970;54.976;73.248;2023-05-21T07:22:28;101035.50;;;23.29;34.89
63819;BME280;49970;54.976;73.248;2023-05-21T07:24:54;101050.19;;;23.26;34.75
63819;BME280;49970;54.976;73.248;2023-05-21T07:27:20;101044.59;;;23.36;35.50
63819;BME280;49970;54.976;73.248;2023-05-21T07:29:48;101036.72;;;23.57;35.97
63819;BME280;49970;54.976;73.248;2023-05-21T07:32:15;101050.19;;;23.74;34.77
63819;BME280;49970;54.976;73.248;2023-05-21T07:34:41;101046.34;;;23.68;34.02
63819;BME280;49970;54.976;73.248;2023-05-21T07:37:08;101043.97;;;23.65;34.60
63819;BME280;49970;54.976;73.248;2023-05-21T07:39:34;101040.44;;;23.56;34.62
63819;BME280;49970;54.976;73.248;2023-05-21T07:42:02;101025.09;;;23.49;34.19
63819;BME280;49970;54.976;73.248;2023-05-21T07:44:29;101027.94;;;23.55;34.04
63819;BME280;49970;54.976;73.248;2023-05-21T07:46:57;101024.91;;;23.58;34.75
63819;BME280;49970;54.976;73.248;2023-05-21T07:49:23;101030.63;;;23.64;33.89
63819;BME280;49970;54.976;73.248;2023-05-21T07:51:50;101033.66;;;23.60;34.01
63819;BME280;49970;54.976;73.248;2023-05-21T07:54:18;101040.28;;;23.58;33.70
63819;BME280;49970;54.976;73.248;2023-05-21T07:56:45;101027.59;;;23.58;33.51
63819;BME280;49970;54.976;73.248;2023-05-21T07:59:25;101033.53;;;23.54;33.75
63819;BME280;49970;54.976;73.248;2023-05-21T08:01:53;101034.41;;;23.46;34.26
63819;BME280;49970;54.976;73.248;2023-05-21T08:04:20;101038.88;;;23.31;33.74
63819;BME280;49970;54.976;73.248;2023-05-21T08:06:47;101032.66;;;23.22;33.91
63819;BME280;49970;54.976;73.248;2023-05-21T08:09:13;101031.00;;;23.13;33.83
63819;BME280;49970;54.976;73.248;2023-05-21T08:11:40;101027.78;;;23.09;34.64
63819;BME280;49970;54.976;73.248;2023-05-21T08:14:06;101023.53;;;23.15;34.55
63819;BME280;49970;54.976;73.248;2023-05-21T08:16:34;101023.16;;;23.26;33.98
63819;BME280;49970;54.976;73.248;2023-05-21T08:19:02;101016.22;;;23.32;34.39
63819;BME280;49970;54.976;73.248;2023-05-21T08:21:28;101017.03;;;23.41;34.47
63819;BME280;49970;54.976;73.248;2023-05-21T08:23:55;101021.03;;;23.53;33.84
63819;BME280;49970;54.976;73.248;2023-05-21T08:26:22;101020.69;;;23.56;33.72
63819;BME280;49970;54.976;73.248;2023-05-21T08:28:49;101015.75;;;23.59;34.06
63819;BME280;49970;54.976;73.248;2023-05-21T08:31:17;101018.97;;;23.63;34.52
63819;BME280;49970;54.976;73.248;2023-05-21T08:33:50;101015.94;;;23.66;33.91
63819;BME280;49970;54.976;73.248;2023-05-21T08:36:23;100999.19;;;23.63;34.49
63819;BME280;49970;54.976;73.248;2023-05-21T08:38:55;101010.53;;;23.66;34.18
63819;BME280;49970;54.976;73.248;2023-05-21T08:41:32;101007.63;;;23.68;33.86
63819;BME280;49970;54.976;73.248;2023-05-21T08:44:01;101012.38;;;23.57;33.17
63819;BME280;49970;54.976;73.248;2023-05-21T08:46:31;101002.31;;;23.43;33.02
63819;BME280;49970;54.976;73.248;2023-05-21T08:49:01;100997.13;;;23.33;34.05
63819;BME280;49970;54.976;73.248;2023-05-21T08:51:29;101004.44;;;23.25;34.46
63819;BME280;49970;54.976;73.248;2023-05-21T08:53:56;101002.91;;;23.22;34.15
63819;BME280;49970;54.976;73.248;2023-05-21T08:56:25;101001.88;;;23.23;33.85
63819;BME280;49970;54.976;73.248;2023-05-21T08:58:54;101003.59;;;23.24;34.16
63819;BME280;49970;54.976;73.248;2023-05-21T09:01:25;100998.19;;;23.24;34.20
63819;BME280;49970;54.976;73.248;2023-05-21T09:04:05;101008.94;;;23.32;33.98
63819;BME280;49970;54.976;73.248;2023-05-21T09:06:32;101006.59;;;23.38;33.30
63819;BME280;49970;54.976;73.248;2023-05-21T09:09:03;101008.25;;;23.39;33.10
63819;BME280;49970;54.976;73.248;2023-05-21T09:11:38;101005.38;;;23.40;33.52
63819;BME280;49970;54.976;73.248;2023-05-21T09:14:08;101010.44;;;23.43;33.44
63819;BME280;49970;54.976;73.248;2023-05-21T09:17:02;101000.09;;;23.47;33.49
63819;BME280;49970;54.976;73.248;2023-05-21T09:19:28;101000.91;;;23.55;33.22
63819;BME280;49970;54.976;73.248;2023-05-21T09:22:02;101006.13;;;23.57;33.38
63819;BME280;49970;54.976;73.248;2023-05-21T09:24:30;101002.47;;;23.50;33.67
63819;BME280;49970;54.976;73.248;2023-05-21T09:27:17;100999.63;;;23.43;33.21
63819;BME280;49970;54.976;73.248;2023-05-21T09:30:51;100991.19;;;23.38;33.36
63819;BME280;49970;54.976;73.248;2023-05-21T09:33:26;100980.84;;;23.50;33.86
63819;BME280;49970;54.976;73.248;2023-05-21T09:35:52;100979.22;;;23.64;33.77
63819;BME280;49970;54.976;73.248;2023-05-21T09:38:21;100984.63;;;23.72;32.83
63819;BME280;49970;54.976;73.248;2023-05-21T09:40:48;100981.72;;;23.73;32.75
63819;BME280;49970;54.976;73.248;2023-05-21T09:43:20;100978.91;;;23.67;33.23
63819;BME280;49970;54.976;73.248;2023-05-21T09:45:52;100988.34;;;23.71;32.61
63819;BME280;49970;54.976;73.248;2023-05-21T09:48:38;100984.97;;;23.69;33.03
63819;BME280;49970;54.976;73.248;2023-05-21T09:51:18;100972.13;;;23.71;33.62
63819;BME280;49970;54.976;73.248;2023-05-21T09:53:52;100979.50;;;23.77;32.29
63819;BME280;49970;54.976;73.248;2023-05-21T09:56:24;100984.09;;;23.76;33.21
63819;BME280;49970;54.976;73.248;2023-05-21T09:58:55;100977.28;;;23.80;32.72
63819;BME280;49970;54.976;73.248;2023-05-21T10:01:23;100974.78;;;23.79;32.50
63819;BME280;49970;54.976;73.248;2023-05-21T10:03:53;100975.63;;;23.79;33.29
63819;BME280;49970;54.976;73.248;2023-05-21T10:06:23;100969.47;;;23.85;32.87
63819;BME280;49970;54.976;73.248;2023-05-21T10:09:10;100970.84;;;23.81;32.28
63819;BME280;49970;54.976;73.248;2023-05-21T10:13:05;100973.63;;;23.73;32.85
63819;BME280;49970;54.976;73.248;2023-05-21T10:16:55;100981.25;;;23.70;32.86
63819;BME280;49970;54.976;73.248;2023-05-21T10:20:40;100986.66;;;23.61;32.23
63819;BME280;49970;54.976;73.248;2023-05-21T10:23:08;100978.78;;;23.52;32.13
63819;BME280;49970;54.976;73.248;2023-05-21T10:25:35;100984.91;;;23.46;32.66
63819;BME280;49970;54.976;73.248;2023-05-21T10:28:01;100984.19;;;23.52;32.45
63819;BME280;49970;54.976;73.248;2023-05-21T10:30:28;100991.13;;;23.54;32.53
63819;BME280;49970;54.976;73.248;2023-05-21T10:32:56;100972.34;;;23.53;32.96
63819;BME280;49970;54.976;73.248;2023-05-21T10:35:23;100982.47;;;23.59;31.65
63819;BME280;49970;54.976;73.248;2023-05-21T10:37:50;100984.63;;;23.64;32.40
63819;BME280;49970;54.976;73.248;2023-05-21T10:40:37;100985.47;;;23.64;32.39
63819;BME280;49970;54.976;73.248;2023-05-21T10:55:49;100994.81;;;23.53;32.16
63819;BME280;49970;54.976;73.248;2023-05-21T11:02:32;100999.75;;;23.50;32.63
63819;BME280;49970;54.976;73.248;2023-05-21T11:06:48;100995.88;;;23.44;32.04
63819;BME280;49970;54.976;73.248;2023-05-21T11:10:55;100997.97;;;23.34;32.65
63819;BME280;49970;54.976;73.248;2023-05-21T11:14:38;101003.91;;;23.29;32.10
63819;BME280;49970;54.976;73.248;2023-05-21T11:22:23;100999.53;;;23.28;32.16
63819;BME280;49970;54.976;73.248;2023-05-21T11:30:19;101006.38;;;23.39;32.61
63819;BME280;49970;54.976;73.248;2023-05-21T11:34:18;101008.56;;;23.44;31.92
63819;BME280;49970;54.976;73.248;2023-05-21T11:42:09;101009.28;;;23.38;32.74
63819;BME280;49970;54.976;73.248;2023-05-21T11:46:00;101011.31;;;23.35;32.19
63819;BME280;49970;54.976;73.248;2023-05-21T11:53:41;101004.06;;;23.28;31.93
63819;BME280;49970;54.976;73.248;2023-05-21T11:57:57;101010.69;;;23.25;32.40
63819;BME280;49970;54.976;73.248;2023-05-21T12:01:49;101010.84;;;23.24;32.60
63819;BME280;49970;54.976;73.248;2023-05-21T12:05:46;101003.75;;;23.23;32.01
63819;BME280;49970;54.976;73.248;2023-05-21T12:13:24;101007.28;;;23.23;32.48
63819;BME280;49970;54.976;73.248;2023-05-21T12:17:40;101004.78;;;23.22;32.29
63819;BME280;49970;54.976;73.248;2023-05-21T12:21:31;101011.72;;;23.16;32.63
63819;BME280;49970;54.976;73.248;2023-05-21T12:25:22;100998.72;;;23.11;32.53
63819;BME280;49970;54.976;73.248;2023-05-21T12:29:38;101002.13;;;23.05;32.32
63819;BME280;49970;54.976;73.248;2023-05-21T12:33:32;101006.88;;;23.03;32.56
63819;BME280;49970;54.976;73.248;2023-05-21T12:37:24;101012.09;;;23.05;32.32
63819;BME280;49970;54.976;73.248;2023-05-21T12:41:15;101001.63;;;23.02;32.04
63819;BME280;49970;54.976;73.248;2023-05-21T12:48:55;101014.47;;;23.00;32.58
63819;BME280;49970;54.976;73.248;2023-05-21T12:53:10;101012.44;;;23.02;33.10
63819;BME280;49970;54.976;73.248;2023-05-21T12:57:08;101018.69;;;23.02;32.75
63819;BME280;49970;54.976;73.248;2023-05-21T13:00:57;101012.09;;;23.05;33.04
63819;BME280;49970;54.976;73.248;2023-05-21T13:04:48;101014.63;;;23.06;33.16
63819;BME280;49970;54.976;73.248;2023-05-21T13:08:39;101014.63;;;23.06;32.88
63819;BME280;49970;54.976;73.248;2023-05-21T13:12:30;101010.41;;;23.04;32.47
63819;BME280;49970;54.976;73.248;2023-05-21T13:16:20;101015.44;;;23.07;32.79
63819;BME280;49970;54.976;73.248;2023-05-21T13:20:40;101017.31;;;23.06;32.69
63819;BME280;49970;54.976;73.248;2023-05-21T13:24:31;101024.59;;;23.06;32.78
63819;BME280;49970;54.976;73.248;2023-05-21T13:28:21;101015.63;;;23.05;33.22
63819;BME280;49970;54.976;73.248;2023-05-21T13:32:18;101020.53;;;23.02;33.21
63819;BME280;49970;54.976;73.248;2023-05-21T13:36:35;101016.16;;;23.01;33.18
63819;BME280;49970;54.976;73.248;2023-05-21T13:44:16;101016.47;;;22.90;33.65
63819;BME280;49970;54.976;73.248;2023-05-21T13:48:12;101020.22;;;22.88;33.85
63819;BME280;49970;54.976;73.248;2023-05-21T13:52:04;101022.91;;;22.88;33.49
63819;BME280;49970;54.976;73.248;2023-05-21T13:55:55;101022.22;;;22.86;34.20
63819;BME280;49970;54.976;73.248;2023-05-21T13:59:46;101026.13;;;22.84;34.11
63819;BME280;49970;54.976;73.248;2023-05-21T14:04:02;101021.25;;;22.79;34.17
63819;BME280;49970;54.976;73.248;2023-05-21T14:07:53;101024.97;;;22.78;34.00
63819;BME280;49970;54.976;73.248;2023-05-21T14:11:44;101026.31;;;22.74;34.21
63819;BME280;49970;54.976;73.248;2023-05-21T14:15:35;101025.63;;;22.72;34.81
63819;BME280;49970;54.976;73.248;2023-05-21T14:19:50;101027.00;;;22.60;35.16
63819;BME280;49970;54.976;73.248;2023-05-21T14:23:42;101030.22;;;22.55;35.38
63819;BME280;49970;54.976;73.248;2023-05-21T14:27:33;101032.56;;;22.50;35.91
63819;BME280;49970;54.976;73.248;2023-05-21T14:31:49;101039.16;;;22.48;36.05
63819;BME280;49970;54.976;73.248;2023-05-21T14:35:40;101036.78;;;22.45;36.75
63819;BME280;49970;54.976;73.248;2023-05-21T15:46:15;101064.34;;;21.47;38.43
63819;BME280;49970;54.976;73.248;2023-05-21T15:48:46;101069.59;;;21.49;38.56
63819;BME280;49970;54.976;73.248;2023-05-21T15:51:17;101058.13;;;21.47;38.50
63819;BME280;49970;54.976;73.248;2023-05-21T15:53:48;101063.19;;;21.50;38.72
63819;BME280;49970;54.976;73.248;2023-05-21T15:56:18;101070.56;;;21.48;38.64
63819;BME280;49970;54.976;73.248;2023-05-21T15:58:48;101075.81;;;21.49;38.55
63819;BME280;49970;54.976;73.248;2023-05-21T16:01:17;101075.00;;;21.49;38.62
63819;BME280;49970;54.976;73.248;2023-05-21T16:03:51;101084.41;;;21.45;38.52
63819;BME280;49970;54.976;73.248;2023-05-21T16:06:23;101087.94;;;21.45;38.59
63819;BME280;49970;54.976;73.248;2023-05-21T16:08:54;101086.09;;;21.46;38.50
63819;BME280;49970;54.976;73.248;2023-05-21T16:11:24;101069.50;;;21.32;38.80
63819;BME280;49970;54.976;73.248;2023-05-21T16:13:53;101095.00;;;21.46;38.78
63819;BME280;49970;54.976;73.248;2023-05-21T16:16:41;101096.50;;;21.41;38.93
63819;BME280;49970;54.976;73.248;2023-05-21T16:19:22;101089.25;;;21.41;39.06
63819;BME280;49970;54.976;73.248;2023-05-21T16:21:48;101093.13;;;21.38;39.21
63819;BME280;49970;54.976;73.248;2023-05-21T16:24:15;101092.81;;;21.42;39.40
63819;BME280;49970;54.976;73.248;2023-05-21T16:26:42;101084.34;;;21.36;39.72
63819;BME280;49970;54.976;73.248;2023-05-21T16:29:08;101087.72;;;21.38;39.78
63819;BME280;49970;54.976;73.248;2023-05-21T16:31:34;101095.81;;;21.38;40.07
63819;BME280;49970;54.976;73.248;2023-05-21T16:34:02;101093.94;;;21.39;40.23